Tiempo atmosférico en la estación meteorológica de Arganda Del Rey, Madrid (533 m.)



Fecha
DESCASC
Temp. máxima en grados centígrados (hora)
DESCASC
Temp. mínima en grados centígrados (hora)
DESCASC
Temp. media en grados centígrados
DESCASC
Racha de viento máxima en m/sg (hora)
DESCASC
Velocidad máxima media en intervalos de 10 minutos(hora)
DESCASC
Precipitaciones diarias en mm
DESCASC
Precipitaciones de 00:00 a 06:00 en mm
DESCASC
Precipitaciones de 06:00 a 12:00 en mm
DESCASC
Precipitaciones de 12:00 a 18:00 en mm
DESCASC
Precipitaciones de 18:00 a 24:00 en mm
DESCASC
24-03-2019 23.7 (17:10) 5.6 (07:30) 14.7 9.17 (13:50) 5.56 (13:50) 0 0 0 0 0
23-03-2019 21.9 (14:50) 4.1 (07:10) 13 9.17 (13:50) 5.56 (13:50) 0 0 0 0 0
22-03-2019 20.3 (17:10) 1.3 (07:50) 10.8 9.17 (15:50) 5.28 (16:10) 0 0 0 0 0
21-03-2019 17.6 (16:40) 1.8 (00:00) 9.7 5.83 (14:10) 3.33 (16:50) 0 0 0 0 0
20-03-2019 17 (16:10) 1.7 (00:00) 9.4 12.5 (16:40) 5 (10:00) 0 0 0 0 0
19-03-2019 17 (16:10) 4.3 (00:00) 10.7 11.67 (16:30) 6.67 (13:50) 0 0 0 0 0
18-03-2019 16.9 (16:50) 4.6 (00:00) 10.7 10.56 (11:50) 5.83 (10:50) 0 0 0 0 0
17-03-2019 22.5 (16:20) 2.5 (00:00) 12.5 10.56 (13:20) 6.67 (18:00) 0 0 0 0 0
16-03-2019 26.3 (16:00) 2.4 (00:00) 14.3 9.44 (18:50) 5 (15:40) 0 0 0 0 0
15-03-2019 24.8 (17:00) -0.1 (00:00) 12.3 4.72 (16:30) 2.5 (15:50) 0 0 0 0 0
14-03-2019 19.4 (17:20) -0.7 (-00:0) 9.3 4.72 (16:00) 3.06 (16:50) 0 0 0 0 0
13-03-2019 16.5 (16:00) 6.9 (00:00) 11.7 12.5 (11:00) 7.5 (10:40) 0 0 0 0 0
12-03-2019 23.2 (16:10) 2.9 (00:00) 13.1 11.11 (15:30) 7.78 (16:20) 0 0 0 0 0
11-03-2019 21.1 (15:50) 5 (00:00) 13.1 8.06 (15:00) 4.72 (11:30) 0 0 0 0 0
10-03-2019 24.3 (17:20) 2.3 (00:00) 13.3 4.72 (19:10) 2.5 (19:40) 0 0 0 0 0
09-03-2019 20.5 (17:10) 1.9 (00:00) 11.2 3.89 (13:10) 2.5 (10:30) 0 0 0 0 0
08-03-2019 17.3 (17:50) 3.5 (00:00) 10.4 5 (13:50) 2.5 (16:00) 0 0 0 0 0
07-03-2019 13.2 (16:10) 1.7 (00:00) 7.4 10.28 (00:40) 6.67 (00:30) 0 0 0 0 0
06-03-2019 14 (01:40) 6.9 (00:00) 10.5 19.44 (17:40) 12.5 (17:20) 6 0 3 3 0
05-03-2019 16.7 (15:10) 8.4 (00:00) 12.6 11.11 (15:40) 7.22 (16:00) 0 0 0 0 0
04-03-2019 17 (15:10) 7.7 (00:00) 12.3 13.61 (14:50) 9.17 (15:30) 0 0 0 0 0
03-03-2019 22.5 (15:30) 0.5 (00:00) 11.5 10.28 (13:40) 6.67 (14:20) 0 0 0 0 0
02-03-2019 22 (17:40) 3 (00:00) 12.5 5.83 (16:00) 3.61 (16:10) 0 0 0 0 0
01-03-2019 21.5 (15:30) 2.6 (00:00) 12 5.83 (15:40) 3.61 (18:50) 0 0 0 0 0
28-02-2019 20.8 (15:10) 1 (00:00) 10.9 3.89 (16:30) 2.5 (16:30) 0 0 0 0 0
27-02-2019 22.2 (16:10) 0.2 (00:00) 11.2 5.83 (15:30) 3.33 (17:50) 0 0 0 0 0
26-02-2019 22.6 (16:10) 1.6 (00:00) 12.1 8.06 (15:50) 4.72 (15:50) 0 0 0 0 0
25-02-2019 21.6 (17:50) 2 (00:00) 11.8 3.61 (04:00) 2.22 (04:00) 0 0 0 0 0
24-02-2019 21.6 (17:00) 0.5 (00:00) 11.1 5.28 (16:30) 2.78 (18:20) 0 0 0 0 0

Gráficas

Temp. máximas Temp. mínimas Temp. medias Precipitaciones Rachas de viento máximas Velocidades máximas media en intervalos de 10 minutos

Datos horarios

Fecha y hora oficial Temperatura (ºC) Velocidad del viento (km/h) Dirección del viento Racha (km/h) Dirección de racha Precipitación (mm) Presión (hPa) Tendencia (hPa) Humedad (%)
2019-03-25 23:00:00 12.2 10 Nordeste 27 Nordeste 0 -- -- 35
2019-03-25 22:00:00 14.2 13 Nordeste 29 Nordeste 0 -- -- 28
2019-03-25 21:00:00 15.1 8 Nordeste 13 Nordeste 0 -- -- 28
2019-03-25 20:00:00 17.8 4 Nordeste 20 Nordeste 0 -- -- 23
2019-03-25 19:00:00 20.8 12 Nordeste 24 Nordeste 0 -- -- 20
2019-03-25 18:00:00 22.3 15 Norte 24 Nordeste 0 -- -- 17
2019-03-25 17:00:00 23 16 Norte 30 Norte 0 -- -- 15
2019-03-25 16:00:00 22.7 12 Nordeste 31 Norte 0 -- -- 21
2019-03-25 15:00:00 23.1 11 Norte 28 Nordeste 0 -- -- 22
2019-03-25 14:00:00 22.8 14 Norte 28 Nordeste 0 -- -- 22
2019-03-25 13:00:00 21.7 13 Norte 23 Nordeste 0 -- -- 25
2019-03-25 12:00:00 19.7 10 Norte 20 Norte 0 -- -- 30
2019-03-25 11:00:00 17.4 13 Norte 20 Norte 0 -- -- 36
2019-03-25 10:00:00 14.4 8 Norte 23 Norte 0 -- -- 42
2019-03-25 09:00:00 11.3 6 Nordeste 13 Norte 0 -- -- 48
2019-03-25 08:00:00 7.1 5 Nordeste 10 Nordeste 0 -- -- 58
2019-03-25 07:00:00 4.4 2 Este 8 Este 0 -- -- 62
2019-03-25 06:00:00 5.7 5 Este 10 Nordeste 0 -- -- 57
2019-03-25 05:00:00 6 6 Este 10 Este 0 -- -- 56
2019-03-25 04:00:00 7.4 4 Este 9 Este 0 -- -- 52
2019-03-25 03:00:00 8.9 6 Nordeste 12 Este 0 -- -- 48
2019-03-25 02:00:00 9.5 7 Este 11 Nordeste 0 -- -- 46
2019-03-25 01:00:00 9.8 2 Nordeste 9 Nordeste 0 -- -- 45
2019-03-25 00:00:00 11.5 5 Nordeste 9 Nordeste 0 -- -- 40
2019-03-24 23:00:00 11.8 6 Nordeste 11 Nordeste 0 -- -- 40
2019-03-24 22:00:00 13.3 5 Sudeste 9 Sudeste 0 -- -- 36
2019-03-24 21:00:00 14.6 6 Oeste 8 Oeste 0 -- -- 34
2019-03-24 20:00:00 17.9 4 Sur 14 Sur 0 -- -- 28
2019-03-24 19:00:00 21.1 5 Sur 13 Sudeste 0 -- -- 25
2019-03-24 18:00:00 22.4 9 Este 27 Sudeste 0 -- -- 22
2019-03-24 17:00:00 23.5 5 Sudeste 25 Este 0 -- -- 21
2019-03-24 16:00:00 22.8 9 Este 28 Este 0 -- -- 22
2019-03-24 15:00:00 22.7 17 Este 31 Este 0 -- -- 24
2019-03-24 14:00:00 21.9 19 Este 33 Este 0 -- -- 24
2019-03-24 13:00:00 21.2 14 Este 28 Este 0 -- -- 24
2019-03-24 12:00:00 19.4 8 Este 17 Norte 0 -- -- 33
2019-03-24 11:00:00 17 4 Noroeste 11 Nordeste 0 -- -- 41
2019-03-24 10:00:00 14.2 6 Norte 14 Nordeste 0 -- -- 46
2019-03-24 09:00:00 11.2 3 Este 6 Nordeste 0 -- -- 55
2019-03-24 08:00:00 7.1 0 Calma 6 Este 0 -- -- 69
2019-03-24 07:00:00 6.2 3 Sudeste 6 Nordeste 0 -- -- 67
2019-03-24 06:00:00 7.8 4 Este 6 Este 0 -- -- 61
2019-03-24 05:00:00 9 0 Calma 8 Nordeste 0 -- -- 58
2019-03-24 04:00:00 10.2 5 Nordeste 10 Nordeste 0 -- -- 55
2019-03-24 03:00:00 12.1 8 Nordeste 15 Norte 0 -- -- 49
2019-03-24 02:00:00 10.3 5 Norte 11 Nordeste 0 -- -- 56
2019-03-24 01:00:00 10.1 5 Nordeste 10 Nordeste 0 -- -- 56
2019-03-24 00:00:00 10.4 0 Calma 8 Noroeste 0 -- -- 53
2019-03-23 23:00:00 11.5 5 Noroeste 12 Oeste 0 -- -- 50
2019-03-23 22:00:00 11.8 0 Calma 12 Sudeste 0 -- -- 47
2019-03-23 21:00:00 13.5 9 Sudeste 12 Sudeste 0 -- -- 45
2019-03-23 20:00:00 17 6 Este 25 Sudeste 0 -- -- 38
2019-03-23 19:00:00 18.4 13 Sudeste 26 Sudeste 0 -- -- 34
2019-03-23 18:00:00 19.5 15 Sudeste 26 Sudeste 0 -- -- 31
2019-03-23 17:00:00 20.8 10 Este 20 Este 0 -- -- 30
2019-03-23 16:00:00 20.8 13 Sudeste 26 Sudeste 0 -- -- 29
2019-03-23 15:00:00 21.4 11 Este 32 Sudeste 0 -- -- 28
2019-03-23 14:00:00 21.8 18 Sudeste 33 Este 0 -- -- 27
2019-03-23 13:00:00 20.9 16 Este 30 Sudeste 0 -- -- 28
2019-03-23 12:00:00 19.2 5 Noroeste 16 Norte 0 -- -- 35
2019-03-23 11:00:00 15.6 4 Nordeste 12 Norte 0 -- -- 43
2019-03-23 10:00:00 11.8 4 Nordeste 13 Nordeste 0 -- -- 51
2019-03-23 09:00:00 8.8 2 Este 5 Este 0 -- -- 59
2019-03-23 08:00:00 4.8 3 Este 10 Nordeste 0 -- -- 70
2019-03-23 07:00:00 4.3 5 Este 8 Este 0 -- -- 71
2019-03-23 06:00:00 4.7 3 Este 7 Nordeste 0 -- -- 69
2019-03-23 05:00:00 5.8 4 Nordeste 8 Nordeste 0 -- -- 67
2019-03-23 04:00:00 6.1 0 Calma 8 Este 0 -- -- 66
2019-03-23 03:00:00 7.6 5 Este 9 Nordeste 0 -- -- 59
2019-03-23 02:00:00 9.2 5 Nordeste 6 Este 0 -- -- 55
2019-03-23 01:00:00 11.4 0 Calma 9 Sudeste 0 -- -- 50
2019-03-23 00:00:00 12 3 Sudoeste 7 Sudoeste 0 -- -- 48
2019-03-22 23:00:00 12.2 4 Sudoeste 10 Sudoeste 0 -- -- 46
2019-03-22 22:00:00 12.7 3 Sudoeste 13 Sudeste 0 -- -- 43
2019-03-22 21:00:00 13.7 9 Sudeste 18 Sur 0 -- -- 39
2019-03-22 20:00:00 15.3 2 Sur 4 Sudeste 0 -- -- 35
2019-03-22 19:00:00 19 4 Sur 17 Sudeste 0 -- -- 29
2019-03-22 18:00:00 19.7 12 Sudeste 25 Sudeste 0 -- -- 28
2019-03-22 17:00:00 20.2 10 Este 31 Este 0 -- -- 28
2019-03-22 16:00:00 19.8 14 Este 33 Este 0 -- -- 28
2019-03-22 15:00:00 19.4 12 Este 24 Este 0 -- -- 26
2019-03-22 14:00:00 18.1 10 Norte 22 Norte 0 -- -- 28
2019-03-22 13:00:00 16.4 6 Norte 17 Nordeste 0 -- -- 31
2019-03-22 12:00:00 14.6 8 Nordeste 20 Nordeste 0 -- -- 35
2019-03-22 11:00:00 12.2 9 Nordeste 18 Este 0 -- -- 39
2019-03-22 10:00:00 8.8 6 Norte 12 Nordeste 0 -- -- 48
2019-03-22 09:00:00 5.6 0 Calma 6 Este 0 -- -- 56
2019-03-22 08:00:00 1.6 2 Este 7 Este 0 -- -- 68
2019-03-22 07:00:00 1.6 4 Este 9 Nordeste 0 -- -- 67
2019-03-22 06:00:00 2.4 4 Nordeste 9 Este 0 -- -- 64
2019-03-22 05:00:00 3.6 6 Este 10 Nordeste 0 -- -- 61
2019-03-22 04:00:00 3.9 6 Nordeste 9 Este 0 -- -- 59
2019-03-22 03:00:00 5.1 0 Calma 6 Este 0 -- -- 51
2019-03-22 02:00:00 7 4 Sudeste 17 Sur 0 -- -- 46
2019-03-22 01:00:00 8.2 5 Este 12 Sudeste 0 -- -- 43
2019-03-22 00:00:00 6.9 4 Oeste 6 Oeste 0 -- -- 49
2019-03-21 23:00:00 7 5 Oeste 10 Oeste 0 -- -- 47
2019-03-21 22:00:00 7.5 2 Nordeste 5 Nordeste 0 -- -- 45
2019-03-21 21:00:00 9.3 2 Este 7 Sur 0 -- -- 38
2019-03-21 20:00:00 12.7 0 Calma 5 Oeste 0 -- -- 34
2019-03-21 19:00:00 16 5 Noroeste 15 Norte 0 -- -- 29
2019-03-21 18:00:00 17 5 Norte 17 Norte 0 -- -- 27
2019-03-21 17:00:00 17.4 9 Noroeste 19 Noroeste 0 -- -- 28
2019-03-21 16:00:00 17.1 7 Nordeste 18 Este 0 -- -- 29
2019-03-21 15:00:00 16.5 8 Este 21 Norte 0 -- -- 31
2019-03-21 14:00:00 15.5 6 Sudeste 15 Este 0 -- -- 31
2019-03-21 13:00:00 14.2 5 Nordeste 19 Noroeste 0 -- -- 36
2019-03-21 12:00:00 13 3 Oeste 16 Este 0 -- -- 40
2019-03-21 11:00:00 11.1 3 Sur 7 Sudoeste 0 -- -- 41
2019-03-21 10:00:00 8.4 3 Este 15 Nordeste 0 -- -- 46
2019-03-21 09:00:00 5.8 5 Nordeste 12 Nordeste 0 -- -- 53
2019-03-21 08:00:00 2.6 4 Nordeste 8 Nordeste 0 -- -- 62
2019-03-21 07:00:00 2.5 5 Este 14 Norte 0 -- -- 60
2019-03-21 06:00:00 2.7 4 Este 9 Este 0 -- -- 60
2019-03-21 05:00:00 4.3 4 Nordeste 9 Este 0 -- -- 54
2019-03-21 04:00:00 4.7 3 Nordeste 14 Norte 0 -- -- 54
2019-03-21 03:00:00 5.4 5 Nordeste 12 Este 0 -- -- 56
2019-03-21 02:00:00 7.2 6 Nordeste 12 Nordeste 0 -- -- 57
2019-03-21 01:00:00 8.8 6 Nordeste 20 Nordeste 0 -- -- 50
2019-03-21 00:00:00 8.7 10 Nordeste 19 Norte 0 -- -- 39
2019-03-20 23:00:00 9.5 8 Norte 15 Norte 0 -- -- 38
2019-03-20 22:00:00 9.1 4 Nordeste 8 Nordeste 0 -- -- 40
2019-03-20 21:00:00 10.5 5 Nordeste 8 Nordeste 0 -- -- 37
2019-03-20 20:00:00 12.7 5 Norte 13 Norte 0 -- -- 33
2019-03-20 19:00:00 15.4 8 Norte 17 Norte 0 -- -- 28
2019-03-20 18:00:00 16.8 4 Noroeste 17 Noroeste 0 -- -- 28
2019-03-20 17:00:00 16.6 8 Norte 45 Norte 0 -- -- 29
2019-03-20 16:00:00 16.8 11 Noroeste 24 Norte 0 -- -- 29
2019-03-20 15:00:00 16.2 12 Noroeste 22 Noroeste 0 -- -- 31
2019-03-20 14:00:00 14.7 8 Noroeste 23 Nordeste 0 -- -- 34
2019-03-20 13:00:00 13.4 7 Nordeste 25 Nordeste 0 -- -- 36
2019-03-20 12:00:00 12.3 13 Nordeste 33 Nordeste 0 -- -- 39
2019-03-20 11:00:00 11 16 Nordeste 32 Nordeste 0 -- -- 42
2019-03-20 10:00:00 9.2 18 Nordeste 31 Nordeste 0 -- -- 47
2019-03-20 09:00:00 6.3 9 Nordeste 19 Nordeste 0 -- -- 58
2019-03-20 08:00:00 3.1 4 Nordeste 7 Nordeste 0 -- -- 69
2019-03-20 07:00:00 2 5 Norte 8 Nordeste 0 -- -- 72
2019-03-20 06:00:00 2.6 3 Nordeste 9 Este 0 -- -- 69
2019-03-20 05:00:00 4 5 Nordeste 22 Nordeste 0 -- -- 63
2019-03-20 04:00:00 4.6 7 Nordeste 20 Nordeste 0 -- -- 60
2019-03-20 03:00:00 4.7 7 Nordeste 16 Este 0 -- -- 62
2019-03-20 02:00:00 5.5 7 Nordeste 15 Este 0 -- -- 59
2019-03-20 01:00:00 5.4 2 Nordeste 9 Nordeste 0 -- -- 57
2019-03-20 00:00:00 6.7 4 Nordeste 10 Norte 0 -- -- 54
2019-03-19 23:00:00 8 4 Nordeste 13 Nordeste 0 -- -- 51
2019-03-19 22:00:00 10.3 8 Nordeste 26 Norte 0 -- -- 45
2019-03-19 21:00:00 11.6 14 Norte 31 Norte 0 -- -- 41
2019-03-19 20:00:00 13 16 Norte 26 Norte 0 -- -- 39
2019-03-19 19:00:00 15.1 13 Norte 35 Norte 0 -- -- 35
2019-03-19 18:00:00 15.9 14 Norte 35 Nordeste 0 -- -- 32
2019-03-19 17:00:00 16.4 13 Nordeste 42 Nordeste 0 -- -- 32
2019-03-19 16:00:00 16.8 17 Norte 29 Nordeste 0 -- -- 32
2019-03-19 15:00:00 16.1 19 Nordeste 36 Nordeste 0 -- -- 32
2019-03-19 14:00:00 16.3 17 Norte 40 Norte 0 -- -- 32
2019-03-19 13:00:00 14.9 10 Norte 22 Norte 0 -- -- 37
2019-03-19 12:00:00 14.3 11 Nordeste 26 Norte 0 -- -- 39
2019-03-19 11:00:00 12.8 9 Norte 21 Norte 0 -- -- 42
2019-03-19 10:00:00 11.1 8 Norte 17 Norte 0 -- -- 46
2019-03-19 09:00:00 9.6 6 Nordeste 11 Nordeste 0 -- -- 49
2019-03-19 08:00:00 7.9 4 Nordeste 17 Nordeste 0 -- -- 54
2019-03-19 07:00:00 7.1 8 Nordeste 23 Norte 0 -- -- 55
2019-03-19 06:00:00 7.2 12 Norte 19 Nordeste 0 -- -- 54
2019-03-19 05:00:00 6.7 5 Nordeste 13 Nordeste 0 -- -- 56
2019-03-19 04:00:00 6.2 3 Norte 8 Norte 0 -- -- 56
2019-03-19 03:00:00 5.3 3 Norte 12 Norte 0 -- -- 54
2019-03-19 02:00:00 4.3 0 Calma 5 Sudoeste 0 -- -- 55
2019-03-19 01:00:00 5.7 3 Nordeste 6 Este 0 -- -- 52
2019-03-19 00:00:00 7.5 2 Nordeste 13 Nordeste 0 -- -- 45
2019-03-18 23:00:00 9.1 5 Nordeste 18 Nordeste 0 -- -- 40
2019-03-18 22:00:00 9.4 7 Nordeste 10 Nordeste 0 -- -- 35
2019-03-18 21:00:00 11.8 6 Nordeste 11 Norte 0 -- -- 30
2019-03-18 20:00:00 13.2 3 Nordeste 11 Norte 0 -- -- 29
2019-03-18 19:00:00 15.4 8 Norte 22 Nordeste 0 -- -- 25
2019-03-18 18:00:00 16.4 12 Nordeste 27 Nordeste 0 -- -- 23
2019-03-18 17:00:00 16.8 15 Norte 30 Nordeste 0 -- -- 23
2019-03-18 16:00:00 16.5 17 Norte 32 Nordeste 0 -- -- 27
2019-03-18 15:00:00 15.7 12 Norte 28 Norte 0 -- -- 30
2019-03-18 14:00:00 15 18 Norte 35 Nordeste 0 -- -- 32
2019-03-18 13:00:00 13.7 16 Nordeste 32 Nordeste 0 -- -- 35
2019-03-18 12:00:00 12.5 21 Norte 38 Nordeste 0 -- -- 38
2019-03-18 11:00:00 10.8 21 Norte 35 Norte 0 -- -- 41
2019-03-18 10:00:00 9.2 16 Norte 26 Norte 0 -- -- 45
2019-03-18 09:00:00 6.7 12 Nordeste 21 Nordeste 0 -- -- 48
2019-03-18 08:00:00 4.9 8 Nordeste 26 Norte 0 -- -- 53
2019-03-18 07:00:00 4.7 11 Nordeste 22 Nordeste 0 -- -- 50
2019-03-18 06:00:00 5.4 12 Nordeste 27 Nordeste 0 -- -- 50
2019-03-18 05:00:00 6.4 12 Nordeste 25 Norte 0 -- -- 51
2019-03-18 04:00:00 7.2 12 Nordeste 22 Nordeste 0 -- -- 53
2019-03-18 03:00:00 7.4 12 Nordeste 25 Nordeste 0 -- -- 60
2019-03-18 02:00:00 8.1 15 Nordeste 27 Nordeste 0 -- -- 58
2019-03-18 01:00:00 8.8 14 Nordeste 24 Nordeste 0 -- -- 58
2019-03-18 00:00:00 10 13 Nordeste 34 Nordeste 0 -- -- 55
2019-03-17 23:00:00 12.8 14 Nordeste 26 Nordeste 0 -- -- 48
2019-03-17 22:00:00 14.6 13 Nordeste 24 Norte 0 -- -- 44
2019-03-17 21:00:00 15.2 12 Norte 24 Norte 0 -- -- 43
2019-03-17 20:00:00 15.6 4 Nordeste 21 Norte 0 -- -- 40
2019-03-17 19:00:00 17.2 16 Norte 33 Norte 0 -- -- 37
2019-03-17 18:00:00 18.7 24 Norte 36 Norte 0 -- -- 37
2019-03-17 17:00:00 21.5 12 Oeste 27 Oeste 0 -- -- 30
2019-03-17 16:00:00 21.7 16 Oeste 36 Oeste 0 -- -- 27
2019-03-17 15:00:00 21 17 Oeste 34 Oeste 0 -- -- 26
2019-03-17 14:00:00 21 20 Oeste 38 Sudoeste 0 -- -- 24
2019-03-17 13:00:00 20.9 18 Oeste 37 Oeste 0 -- -- 24
2019-03-17 12:00:00 19.6 17 Oeste 28 Oeste 0 -- -- 26
2019-03-17 11:00:00 16.1 6 Sur 14 Sudoeste 0 -- -- 39
2019-03-17 10:00:00 12.6 2 Sudeste 8 Este 0 -- -- 52
2019-03-17 09:00:00 8.2 2 Oeste 4 Noroeste 0 -- -- 65
2019-03-17 08:00:00 3.1 0 Calma 5 Norte 0 -- -- 75
2019-03-17 07:00:00 3.1 0 Calma 6 Noroeste 0 -- -- 76
2019-03-17 06:00:00 3.4 4 Oeste 6 Noroeste 0 -- -- 72
2019-03-17 05:00:00 3.8 2 Oeste 4 Oeste 0 -- -- 70
2019-03-17 04:00:00 4.3 0 Calma 5 Sur 0 -- -- 67
2019-03-17 03:00:00 5.7 0 Calma 4 Sudoeste 0 -- -- 62
2019-03-17 02:00:00 6.8 0 Calma 2 Noroeste 0 -- -- 57
2019-03-17 01:00:00 7.9 0 Calma 3 Sudoeste 0 -- -- 55
2019-03-17 00:00:00 9.6 0 Calma 4 Norte 0 -- -- 47
2019-03-16 23:00:00 10.3 0 Calma 5 Noroeste 0 -- -- 45
2019-03-16 22:00:00 12.9 0 Calma 4 Este 0 -- -- 38
2019-03-16 21:00:00 16.7 0 Calma 11 Oeste 0 -- -- 31
2019-03-16 20:00:00 20.1 8 Oeste 19 Oeste 0 -- -- 27
2019-03-16 19:00:00 23.3 13 Oeste 34 Oeste 0 -- -- 24
2019-03-16 18:00:00 25.5 12 Oeste 24 Oeste 0 -- -- 21
2019-03-16 17:00:00 26 17 Sudoeste 27 Sudoeste 0 -- -- 20
2019-03-16 16:00:00 26.3 16 Sudoeste 28 Sudoeste 0 -- -- 20
2019-03-16 15:00:00 25.8 16 Sudoeste 26 Sudoeste 0 -- -- 20
2019-03-16 14:00:00 24.4 8 Oeste 15 Oeste 0 -- -- 23
2019-03-16 13:00:00 23.2 4 Sudoeste 11 Este 0 -- -- 26
2019-03-16 12:00:00 19.5 3 Oeste 8 Noroeste 0 -- -- 33
2019-03-16 11:00:00 16 2 Sur 6 Sudeste 0 -- -- 40
2019-03-16 10:00:00 12.2 2 Este 5 Este 0 -- -- 48
2019-03-16 09:00:00 7.9 2 Este 8 Este 0 -- -- 59
2019-03-16 08:00:00 4.2 4 Nordeste 8 Nordeste 0 -- -- 68
2019-03-16 07:00:00 3.4 4 Nordeste 8 Nordeste 0 -- -- 70
2019-03-16 06:00:00 3.6 6 Nordeste 10 Nordeste 0 -- -- 67
2019-03-16 05:00:00 2.6 3 Nordeste 6 Nordeste 0 -- -- 64
2019-03-16 04:00:00 3.1 3 Nordeste 5 Nordeste 0 -- -- 65
2019-03-16 03:00:00 4.8 3 Nordeste 6 Nordeste 0 -- -- 60
2019-03-16 02:00:00 5.9 4 Nordeste 6 Nordeste 0 -- -- 58
2019-03-16 01:00:00 7.7 4 Este 10 Este 0 -- -- 50
2019-03-16 00:00:00 9.2 5 Nordeste 10 Este 0 -- -- 47
2019-03-15 23:00:00 9.4 2 Nordeste 10 Este 0 -- -- 44
2019-03-15 22:00:00 11 3 Norte 5 Norte 0 -- -- 38
2019-03-15 21:00:00 13.9 0 Calma 4 Norte 0 -- -- 34
2019-03-15 20:00:00 17.6 2 Sur 5 Sur 0 -- -- 29
2019-03-15 19:00:00 22.8 5 Sudoeste 12 Sur 0 -- -- 22
2019-03-15 18:00:00 24.4 8 Sudoeste 15 Oeste 0 -- -- 20
2019-03-15 17:00:00 24.8 6 Sudoeste 17 Sudoeste 0 -- -- 19
2019-03-15 16:00:00 24.1 8 Sudoeste 16 Sudoeste 0 -- -- 21
2019-03-15 15:00:00 22.6 8 Sudoeste 15 Oeste 0 -- -- 22
2019-03-15 14:00:00 20.5 6 Sudoeste 13 Sudoeste 0 -- -- 28
2019-03-15 13:00:00 18.7 3 Nordeste 10 Sudoeste 0 -- -- 29
2019-03-15 12:00:00 16.6 4 Sur 11 Sur 0 -- -- 35
2019-03-15 11:00:00 13.1 4 Este 9 Este 0 -- -- 42
2019-03-15 10:00:00 9.3 4 Este 10 Nordeste 0 -- -- 50
2019-03-15 09:00:00 5.7 4 Este 9 Este 0 -- -- 62
2019-03-15 08:00:00 0.2 3 Este 6 Este 0 -- -- 77
2019-03-15 07:00:00 -0.1 0 Calma 7 Este 0 -- -- 74
2019-03-15 06:00:00 -0.1 0 Calma 4 Norte 0 -- -- 77
2019-03-15 05:00:00 0.6 0 Calma 7 Este 0 -- -- 73
2019-03-15 04:00:00 2.1 3 Este 8 Este 0 -- -- 69
2019-03-15 03:00:00 2.7 0 Calma 5 Norte 0 -- -- 67
2019-03-15 02:00:00 4.1 0 Calma 5 Este 0 -- -- 62
2019-03-15 01:00:00 6.2 4 Nordeste 10 Nordeste 0 -- -- 57
2019-03-15 00:00:00 6.3 5 Nordeste 9 Nordeste 0 -- -- 56
2019-03-14 23:00:00 7.9 2 Este 10 Nordeste 0 -- -- 50
2019-03-14 22:00:00 9.2 0 Calma 4 Sudoeste 0 -- -- 46
2019-03-14 21:00:00 10.9 3 Oeste 7 Sudoeste 0 -- -- 41
2019-03-14 20:00:00 13.5 3 Sudoeste 10 Sur 0 -- -- 36
2019-03-14 19:00:00 17.8 8 Sur 15 Sur 0 -- -- 29
2019-03-14 18:00:00 19.1 8 Sur 16 Sur 0 -- -- 26
2019-03-14 17:00:00 19.1 6 Sudoeste 17 Sudoeste 0 -- -- 27
2019-03-14 16:00:00 18.5 10 Sudoeste 17 Sur 0 -- -- 27
2019-03-14 15:00:00 17.1 8 Oeste 16 Oeste 0 -- -- 29
2019-03-14 14:00:00 15.5 7 Oeste 15 Sudoeste 0 -- -- 35
2019-03-14 13:00:00 14 9 Norte 15 Noroeste 0 -- -- 38
2019-03-14 12:00:00 12.5 5 Sudoeste 12 Sudoeste 0 -- -- 42
2019-03-14 11:00:00 9.9 5 Sudoeste 11 Sudoeste 0 -- -- 50
2019-03-14 10:00:00 7.1 5 Sudoeste 8 Oeste 0 -- -- 59
2019-03-14 09:00:00 3.5 3 Sudoeste 5 Oeste 0 -- -- 74
2019-03-14 08:00:00 -0.1 0 Calma 3 Este 0 -- -- 78
2019-03-14 07:00:00 -0.3 0 Calma 4 Nordeste 0 -- -- 80
2019-03-14 06:00:00 0.3 3 Norte 5 Sur 0 -- -- 75
2019-03-14 05:00:00 1.4 0 Calma 6 Sudoeste 0 -- -- 74
2019-03-14 04:00:00 2.8 0 Calma 6 Sur 0 -- -- 65
2019-03-14 03:00:00 3 3 Norte 4 Norte -- -- -- 64
2019-03-14 02:00:00 3.8 2 Nordeste 5 Norte 0 -- -- 62
2019-03-14 01:00:00 5.4 0 Calma 12 Este 0 -- -- 56
2019-03-14 00:00:00 7.1 8 Este 11 Este 0 -- -- 52
2019-03-13 23:00:00 9 5 Nordeste 14 Norte 0 -- -- 47
2019-03-13 22:00:00 9.7 9 Norte 14 Norte 0 -- -- 44
2019-03-13 21:00:00 11 10 Norte 25 Norte 0 -- -- 40
2019-03-13 20:00:00 11.6 14 Norte 28 Norte 0 -- -- 39
2019-03-13 19:00:00 13.1 23 Norte 33 Norte 0 -- -- 35
2019-03-13 18:00:00 14.6 18 Norte 32 Norte 0 -- -- 33
2019-03-13 17:00:00 15.8 17 Norte 34 Norte 0 -- -- 30
2019-03-13 16:00:00 16.5 16 Norte 32 Norte 0 -- -- 30
2019-03-13 15:00:00 15.9 15 Norte 39 Nordeste 0 -- -- 29
2019-03-13 14:00:00 15.5 15 Norte 33 Nordeste 0 -- -- 31
2019-03-13 13:00:00 15.2 19 Norte 33 Norte 0 -- -- 31
2019-03-13 12:00:00 13.3 18 Norte 43 Norte 0 -- -- 36
2019-03-13 11:00:00 12.1 27 Norte 45 Nordeste 0 -- -- 34
2019-03-13 10:00:00 10.9 24 Norte 39 Nordeste 0 -- -- 51
2019-03-13 09:00:00 10.1 17 Norte 27 Norte 0 -- -- 59
2019-03-13 08:00:00 8.1 3 Nordeste 11 Este 0 -- -- 76
2019-03-13 07:00:00 8 4 Este 10 Nordeste 0 -- -- 77
2019-03-13 06:00:00 7.4 6 Nordeste 11 Nordeste 0 -- -- 78
2019-03-13 05:00:00 8.6 0 Calma 6 Sudeste 0 -- -- 73
2019-03-13 04:00:00 9.9 4 Sudeste 11 Noroeste 0 -- -- 69
2019-03-13 03:00:00 11.3 8 Noroeste 23 Oeste 0 -- -- 64
2019-03-13 02:00:00 12.7 14 Noroeste 27 Noroeste 0 -- -- 60
2019-03-13 01:00:00 11.6 8 Noroeste 15 Oeste 0 -- -- 66
2019-03-13 00:00:00 11.6 0 Calma 5 Sur 0 -- -- 68
2019-03-12 23:00:00 13.3 0 Calma 11 Sur 0 -- -- 64
2019-03-12 22:00:00 14.3 8 Sur 13 Oeste 0 -- -- 60
2019-03-12 21:00:00 16.7 10 Oeste 22 Oeste 0 -- -- 54
2019-03-12 20:00:00 18 18 Oeste 31 Oeste 0 -- -- 48
2019-03-12 19:00:00 19.6 16 Oeste 38 Sudoeste 0 -- -- 38
2019-03-12 18:00:00 21.5 24 Sudoeste 36 Oeste 0 -- -- 31
2019-03-12 17:00:00 22.3 28 Sudoeste 39 Sudoeste 0 -- -- 33
2019-03-12 16:00:00 23 27 Oeste 40 Sudoeste 0 -- -- 29
2019-03-12 15:00:00 22.4 22 Sudoeste 36 Sudoeste 0 -- -- 35
2019-03-12 14:00:00 21.5 24 Sudoeste 36 Sudoeste 0 -- -- 43
2019-03-12 13:00:00 19.1 11 Sudoeste 21 Sudoeste 0 -- -- 42
2019-03-12 12:00:00 15.9 5 Sudoeste 10 Sudoeste 0 -- -- 45
2019-03-12 11:00:00 13.3 2 Oeste 5 Oeste 0 -- -- 48
2019-03-12 10:00:00 10.7 3 Sudeste 7 Nordeste 0 -- -- 52
2019-03-12 09:00:00 6.8 0 Calma 5 Este 0 -- -- 64
2019-03-12 08:00:00 3.5 3 Nordeste 6 Este 0 -- -- 72
2019-03-12 07:00:00 3.3 3 Este 7 Este 0 -- -- 70
2019-03-12 06:00:00 3.6 4 Nordeste 6 Este 0 -- -- 70
2019-03-12 05:00:00 4.2 3 Este 8 Este 0 -- -- 69
2019-03-12 04:00:00 5 4 Nordeste 9 Este 0 -- -- 64
2019-03-12 03:00:00 6 5 Este 8 Nordeste 0 -- -- 63
2019-03-12 02:00:00 6.6 6 Nordeste 9 Nordeste 0 -- -- 62
2019-03-12 01:00:00 7.4 4 Este 13 Nordeste 0 -- -- 59
2019-03-12 00:00:00 8.2 4 Norte 8 Nordeste 0 -- -- 60
2019-03-11 23:00:00 9.6 4 Nordeste 14 Nordeste 0 -- -- 57
2019-03-11 22:00:00 10.8 6 Nordeste 10 Norte 0 -- -- 54
2019-03-11 21:00:00 12.5 3 Nordeste 6 Norte 0 -- -- 51
2019-03-11 20:00:00 15.7 2 Sur 5 Sur 0 -- -- 43
2019-03-11 19:00:00 19.4 3 Nordeste 14 Nordeste 0 -- -- 36
2019-03-11 18:00:00 20.4 6 Nordeste 14 Nordeste 0 -- -- 33
2019-03-11 17:00:00 21.1 6 Nordeste 22 Nordeste 0 -- -- 35
2019-03-11 16:00:00 21.1 6 Nordeste 22 Norte 0 -- -- 36
2019-03-11 15:00:00 20.7 9 Norte 29 Nordeste 0 -- -- 37
2019-03-11 14:00:00 19.6 12 Nordeste 26 Nordeste 0 -- -- 41
2019-03-11 13:00:00 18.3 14 Norte 26 Nordeste 0 -- -- 46
2019-03-11 12:00:00 17.2 11 Nordeste 26 Norte 0 -- -- 52
2019-03-11 11:00:00 16 15 Nordeste 28 Este 0 -- -- 57
2019-03-11 10:00:00 13.8 11 Nordeste 18 Nordeste 0 -- -- 67
2019-03-11 09:00:00 10.6 0 Calma 7 Nordeste 0 -- -- 80
2019-03-11 08:00:00 6.5 4 Nordeste 8 Nordeste 0 -- -- 90
2019-03-11 07:00:00 6 2 Nordeste 9 Nordeste 0 -- -- 86
2019-03-11 06:00:00 5.6 4 Nordeste 6 Este 0 -- -- 86
2019-03-11 05:00:00 5.8 2 Este 4 Nordeste 0 -- -- 84
2019-03-11 04:00:00 6.7 2 Nordeste 6 Este 0 -- -- 81
2019-03-11 03:00:00 8.2 2 Nordeste 13 Nordeste 0 -- -- 75
2019-03-11 02:00:00 8.7 8 Nordeste 12 Este 0 -- -- 77
2019-03-11 01:00:00 9.1 2 Nordeste 6 Sudeste 0 -- -- 74
2019-03-11 00:00:00 11.2 6 Sudeste 12 Este 0 -- -- 65
2019-03-10 23:00:00 12.5 6 Este 12 Nordeste 0 -- -- 62
2019-03-10 22:00:00 13.4 4 Nordeste 6 Este 0 -- -- 61
2019-03-10 21:00:00 16.3 2 Este 12 Noroeste 0 -- -- 53
2019-03-10 20:00:00 18.8 6 Noroeste 17 Sudoeste 0 -- -- 47
2019-03-10 19:00:00 22.7 4 Sur 10 Sudeste 0 -- -- 41
2019-03-10 18:00:00 23.9 5 Sudoeste 14 Sudoeste 0 -- -- 37
2019-03-10 17:00:00 24.1 4 Oeste 13 Sudoeste 0 -- -- 35
2019-03-10 16:00:00 23.4 5 Sudoeste 13 Sudoeste 0 -- -- 34
2019-03-10 15:00:00 22.1 6 Sudoeste 14 Oeste 0 -- -- 39
2019-03-10 14:00:00 20.1 8 Sudoeste 14 Oeste 0 -- -- 46
2019-03-10 13:00:00 18.3 6 Sur 13 Sudoeste 0 -- -- 50
2019-03-10 12:00:00 15.6 7 Sudoeste 13 Sudoeste 0 -- -- 57
2019-03-10 11:00:00 13.1 2 Oeste 8 Este 0 -- -- 62
2019-03-10 10:00:00 10.2 2 Sudeste 6 Este 0 -- -- 73
2019-03-10 09:00:00 6.5 3 Este 6 Este 0 -- -- 86
2019-03-10 08:00:00 2.6 0 Calma 5 Nordeste 0 -- -- 91
2019-03-10 07:00:00 2.3 3 Nordeste 5 Este 0 -- -- 88
2019-03-10 06:00:00 3.3 0 Calma 6 Este 0 -- -- 87
2019-03-10 05:00:00 3.6 2 Nordeste 5 Noroeste 0 -- -- 87
2019-03-10 04:00:00 4.4 4 Sudeste 6 Nordeste 0 -- -- 86
2019-03-10 03:00:00 4.8 2 Norte 4 Nordeste 0 -- -- 82
2019-03-10 02:00:00 5.7 0 Calma 7 Este 0 -- -- 80
2019-03-10 01:00:00 7.1 4 Nordeste 8 Nordeste 0 -- -- 78
2019-03-10 00:00:00 7.8 0 Calma 8 Nordeste 0 -- -- 73
2019-03-09 23:00:00 8.5 0 Calma 3 Este 0 -- -- 76
2019-03-09 22:00:00 9.9 0 Calma 3 Sudoeste 0 -- -- 67
2019-03-09 21:00:00 12.4 0 Calma 5 Sudeste 0 -- -- 58
2019-03-09 20:00:00 15 4 Sur 4 Sur 0 -- -- 51
2019-03-09 19:00:00 18.4 3 Oeste 9 Oeste 0 -- -- 42
2019-03-09 18:00:00 20 7 Oeste 12 Oeste 0 -- -- 37
2019-03-09 17:00:00 20.4 5 Oeste 11 Noroeste 0 -- -- 36
2019-03-09 16:00:00 19.7 6 Oeste 12 Oeste 0 -- -- 36
2019-03-09 15:00:00 18.9 4 Sur 10 Sur 0 -- -- 35
2019-03-09 14:00:00 18 8 Sur 14 Sur 0 -- -- 37
2019-03-09 13:00:00 16.5 5 Norte 11 Sudoeste 0 -- -- 40
2019-03-09 12:00:00 14.6 3 Norte 7 Norte 0 -- -- 50
2019-03-09 11:00:00 12.1 4 Este 12 Nordeste 0 -- -- 55
2019-03-09 10:00:00 8.6 3 Norte 11 Este 0 -- -- 70
2019-03-09 09:00:00 5.7 5 Este 10 Este 0 -- -- 80
2019-03-09 08:00:00 2.5 5 Nordeste 8 Nordeste 0 -- -- 90
2019-03-09 07:00:00 2.2 4 Este 6 Este 0 -- -- 89
2019-03-09 06:00:00 2.4 3 Nordeste 5 Nordeste 0 -- -- 89
2019-03-09 05:00:00 2.2 4 Sudeste 6 Sudeste 0 -- -- 88
2019-03-09 04:00:00 2.8 2 Sudeste 4 Este 0 -- -- 84
2019-03-09 03:00:00 3.2 0 Calma 4 Norte 0 -- -- 83
2019-03-09 02:00:00 4.4 0 Calma 8 Sudeste 0 -- -- 80
2019-03-09 01:00:00 5.2 3 Sudeste 6 Sudeste 0 -- -- 80
2019-03-09 00:00:00 6.6 3 Nordeste 8 Este 0 -- -- 72
2019-03-08 23:00:00 8 7 Este 16 Nordeste 0 -- -- 68
2019-03-08 22:00:00 7.7 0 Calma 3 Sudeste 0 -- -- 73
2019-03-08 21:00:00 9.4 0 Calma 5 Sudoeste 0 -- -- 66
2019-03-08 20:00:00 11.9 2 Sudoeste 8 Oeste 0 -- -- 53
2019-03-08 19:00:00 15.2 3 Norte 11 Nordeste 0 -- -- 43
2019-03-08 18:00:00 17.3 0 Calma 14 Norte 0 -- -- 38
2019-03-08 17:00:00 16.9 6 Nordeste 13 Oeste 0 -- -- 37
2019-03-08 16:00:00 16.5 9 Oeste 18 Oeste 0 -- -- 40
2019-03-08 15:00:00 15.5 4 Sudeste 14 Oeste 0 -- -- 44
2019-03-08 14:00:00 14.7 8 Nordeste 18 Nordeste 0 -- -- 48
2019-03-08 13:00:00 14.1 3 Sudeste 13 Sudeste 0 -- -- 55
2019-03-08 12:00:00 12.9 6 Nordeste 14 Nordeste 0 -- -- 63
2019-03-08 11:00:00 10.8 3 Sudoeste 8 Sur 0 -- -- 76
2019-03-08 10:00:00 7.5 0 Calma 4 Sudoeste 0 -- -- 91
2019-03-08 09:00:00 5.2 0 Calma 2 Oeste 0 -- -- 93
2019-03-08 08:00:00 3.5 0 Calma 3 Sur 0 -- -- 91
2019-03-08 07:00:00 4 0 Calma 3 Sur 0 -- -- 90
2019-03-08 06:00:00 4.4 2 Sur 3 Sur 0 -- -- 88
2019-03-08 05:00:00 5.8 2 Sudeste 4 Sudeste 0 -- -- 87
2019-03-08 04:00:00 7.2 2 Sudeste 3 Sudeste 0 -- -- 86
2019-03-08 03:00:00 7.5 0 Calma 4 Sur 0 -- -- 85
2019-03-08 02:00:00 7.6 0 Calma 5 Oeste 0 -- -- 83
2019-03-08 01:00:00 7.4 3 Noroeste 5 Noroeste 0 -- -- 82
2019-03-08 00:00:00 6.9 3 Sudoeste 6 Sur 0 -- -- 81
2019-03-07 23:00:00 6.9 3 Sudoeste 4 Sudoeste 0 -- -- 79
2019-03-07 22:00:00 7.7 3 Sudoeste 10 Sudoeste 0 -- -- 74
2019-03-07 21:00:00 8.4 6 Sudoeste 20 Oeste 0 -- -- 70
2019-03-07 20:00:00 9.8 14 Sudoeste 23 Oeste 0 -- -- 64
2019-03-07 19:00:00 10.8 14 Sudoeste 32 Oeste 0 -- -- 57
2019-03-07 18:00:00 12.5 21 Oeste 32 Sudoeste 0 -- -- 49
2019-03-07 17:00:00 13 23 Sudoeste 32 Sudoeste 0 -- -- 49
2019-03-07 16:00:00 13.1 16 Sudoeste 33 Sudoeste 0 -- -- 49
2019-03-07 15:00:00 12.8 17 Sudoeste 30 Sur 0 -- -- 50
2019-03-07 14:00:00 11.8 17 Sudoeste 28 Sudoeste 0 -- -- 56
2019-03-07 13:00:00 11.1 14 Sudoeste 30 Sudoeste 0 -- -- 51
2019-03-07 12:00:00 10.3 9 Sudoeste 18 Sudoeste 0 -- -- 61
2019-03-07 11:00:00 8.5 7 Sudoeste 16 Oeste 0 -- -- 75
2019-03-07 10:00:00 6.3 7 Sur 11 Sudoeste 0 -- -- 87
2019-03-07 09:00:00 3.9 4 Sudoeste 10 Sudoeste 0 -- -- 94
2019-03-07 08:00:00 1.7 0 Calma 8 Sudoeste 0 -- -- 93
2019-03-07 07:00:00 2.2 3 Sudeste 12 Sudoeste 0 -- -- 92
2019-03-07 06:00:00 2.9 4 Sur 10 Sudoeste 0 -- -- 91
2019-03-07 05:00:00 4.1 8 Sudoeste 21 Sudoeste 0 -- -- 90
2019-03-07 04:00:00 4.1 6 Sudoeste 22 Sudoeste 0 -- -- 90
2019-03-07 03:00:00 5.2 10 Sudoeste 19 Sudoeste 0 -- -- 89
2019-03-07 02:00:00 5.5 12 Sur 25 Sudoeste 0 -- -- 89
2019-03-07 01:00:00 6.5 19 Sudoeste 37 Sudoeste 0 -- -- 85
2019-03-07 00:00:00 6.9 17 Oeste 32 Oeste 0 -- -- 84
2019-03-06 23:00:00 7.5 23 Oeste 39 Oeste 0 -- -- 82
2019-03-06 22:00:00 7.6 17 Sudoeste 36 Sudoeste 0 -- -- 82
2019-03-06 21:00:00 8.5 26 Sudoeste 44 Sudoeste 0 -- -- 76
2019-03-06 20:00:00 9.1 28 Sudoeste 52 Oeste 0 -- -- 73
2019-03-06 19:00:00 9.7 42 Oeste 62 Sudoeste 0 -- -- 67
2019-03-06 18:00:00 11.3 38 Sudoeste 70 Sudoeste 0 -- -- 65
2019-03-06 17:00:00 12.2 32 Sudoeste 51 Sudoeste 0.2 -- -- 75
2019-03-06 16:00:00 10.6 28 Sudoeste 41 Sudoeste 0.2 -- -- 84
2019-03-06 15:00:00 9.4 32 Sudoeste 55 Sudoeste 2 -- -- 89
2019-03-06 14:00:00 12.9 34 Sudoeste 49 Sudoeste 0.2 -- -- 77
2019-03-06 13:00:00 11.3 20 Sur 36 Sur 0.4 -- -- 85
2019-03-06 12:00:00 10.2 15 Sur 24 Sudoeste 2.2 -- -- 88
2019-03-06 11:00:00 10.4 13 Sudoeste 53 Sudoeste 0.8 -- -- 82
2019-03-06 10:00:00 13.1 36 Sur 56 Sudoeste 0 -- -- 56
2019-03-06 09:00:00 13.2 19 Sur 33 Sur 0 -- -- 66
2019-03-06 08:00:00 12.4 21 Sur 33 Sur 0 -- -- 72
2019-03-06 07:00:00 12.3 15 Sur 28 Sur 0 -- -- 76
2019-03-06 06:00:00 12.5 15 Sur 28 Sur 0 -- -- 77
2019-03-06 05:00:00 13 15 Sur 32 Sur 0 -- -- 76
2019-03-06 04:00:00 13.6 18 Sur 27 Sur 0 -- -- 73
2019-03-06 03:00:00 13.6 17 Sur 30 Sur 0 -- -- 73
2019-03-06 02:00:00 13.8 15 Sur 33 Sur 0 -- -- 71
2019-03-06 01:00:00 13.8 17 Sur 30 Sur 0 -- -- 69
2019-03-06 00:00:00 12.3 9 Sudoeste 19 Sur 0 -- -- 69
2019-03-05 23:00:00 10.5 0 Calma 7 Sur 0 -- -- 67
2019-03-05 22:00:00 11 0 Calma 5 Sudeste 0 -- -- 65
2019-03-05 21:00:00 11.5 0 Calma 6 Sur 0 -- -- 61
2019-03-05 20:00:00 12.8 5 Sur 15 Sudoeste 0 -- -- 57
2019-03-05 19:00:00 15.3 14 Sudoeste 27 Sudoeste 0 -- -- 52
2019-03-05 18:00:00 16 22 Sudoeste 28 Sudoeste 0 -- -- 49
2019-03-05 17:00:00 16.2 21 Sudoeste 36 Sudoeste 0 -- -- 48
2019-03-05 16:00:00 16.4 26 Sudoeste 40 Sudoeste 0 -- -- 48
2019-03-05 15:00:00 16.6 19 Sudoeste 36 Sudoeste 0 -- -- 47
2019-03-05 14:00:00 15.6 23 Sudoeste 33 Sudoeste 0 -- -- 50
2019-03-05 13:00:00 13.6 22 Sudoeste 35 Sudoeste 0 -- -- 56
2019-03-05 12:00:00 13.2 23 Sudoeste 32 Sudoeste 0 -- -- 57
2019-03-05 11:00:00 13 25 Sudoeste 34 Sudoeste 0 -- -- 59
2019-03-05 10:00:00 10.8 14 Sudoeste 22 Sudoeste 0 -- -- 66
2019-03-05 09:00:00 9.2 8 Sudoeste 14 Sur 0 -- -- 71
2019-03-05 08:00:00 8.4 5 Sur 16 Sudoeste 0 -- -- 73
2019-03-05 07:00:00 8.9 4 Oeste 9 Oeste 0 -- -- 72
2019-03-05 06:00:00 8.6 6 Oeste 12 Sudoeste 0 -- -- 75
2019-03-05 05:00:00 8.7 6 Sudoeste 14 Sudoeste 0 -- -- 75
2019-03-05 04:00:00 9.2 9 Sudoeste 18 Sudoeste 0 -- -- 72
2019-03-05 03:00:00 9.5 11 Sudoeste 17 Sudoeste 0 -- -- 70
2019-03-05 02:00:00 8.7 7 Sur 13 Sur 0 -- -- 74
2019-03-05 01:00:00 8.7 7 Sudoeste 12 Sudoeste 0 -- -- 73
2019-03-05 00:00:00 9.9 9 Sudoeste 16 Sur 0 -- -- 68
2019-03-04 23:00:00 10.7 10 Sur 21 Sur 0 -- -- 64
2019-03-04 22:00:00 11.6 9 Sudoeste 28 Oeste 0 -- -- 60
2019-03-04 21:00:00 12.5 19 Oeste 33 Oeste 0 -- -- 59
2019-03-04 20:00:00 13.1 18 Sudoeste 37 Oeste 0 -- -- 57
2019-03-04 19:00:00 14.2 27 Sudoeste 40 Oeste 0 -- -- 53
2019-03-04 18:00:00 15.5 31 Sudoeste 45 Oeste 0 -- -- 51
2019-03-04 17:00:00 16 32 Sudoeste 47 Sudoeste 0 -- -- 54
2019-03-04 16:00:00 16.6 30 Sudoeste 48 Oeste 0 -- -- 55
2019-03-04 15:00:00 16.8 33 Sudoeste 49 Sudoeste 0 -- -- 53
2019-03-04 14:00:00 15.6 31 Sudoeste 41 Oeste 0 -- -- 61
2019-03-04 13:00:00 13.9 21 Sudoeste 39 Sudoeste 0 -- -- 70
2019-03-04 12:00:00 12.8 21 Sudoeste 31 Oeste 0 -- -- 75
2019-03-04 11:00:00 11.7 20 Sudoeste 30 Sudoeste 0 -- -- 81
2019-03-04 10:00:00 11.2 13 Sudoeste 22 Sudoeste 0 -- -- 83
2019-03-04 09:00:00 10.1 8 Sudoeste 16 Sur 0 -- -- 85
2019-03-04 08:00:00 9.1 11 Sudoeste 20 Sudoeste 0 -- -- 85
2019-03-04 07:00:00 9.2 8 Sudoeste 18 Sur 0 -- -- 85
2019-03-04 06:00:00 8.8 10 Sur 18 Sur 0 -- -- 83
2019-03-04 05:00:00 9 4 Oeste 24 Sudoeste 0 -- -- 80
2019-03-04 04:00:00 7.7 10 Sudoeste 21 Sudoeste 0 -- -- 78
2019-03-04 03:00:00 9.3 14 Sudoeste 24 Sudoeste 0 -- -- 70
2019-03-04 02:00:00 10.8 14 Sudoeste 24 Sur 0 -- -- 65
2019-03-04 01:00:00 10.7 11 Sur 19 Sur 0 -- -- 65
2019-03-04 00:00:00 9.9 10 Sudoeste 14 Sudoeste 0 -- -- 68
2019-03-03 23:00:00 11.6 6 Oeste 16 Sudoeste 0 -- -- 64
2019-03-03 22:00:00 12.8 11 Sudoeste 24 Sudoeste 0 -- -- 59
2019-03-03 21:00:00 14.6 9 Sudoeste 24 Sudoeste 0 -- -- 52
2019-03-03 20:00:00 15.5 11 Sur 16 Sur 0 -- -- 48
2019-03-03 19:00:00 17.9 8 Sudoeste 28 Oeste 0 -- -- 42
2019-03-03 18:00:00 20.6 18 Sudoeste 28 Sudoeste 0 -- -- 36
2019-03-03 17:00:00 21.7 15 Sudoeste 31 Sudoeste 0 -- -- 32
2019-03-03 16:00:00 21.8 22 Sudoeste 33 Sudoeste 0 -- -- 31
2019-03-03 15:00:00 22 21 Sudoeste 34 Oeste 0 -- -- 31
2019-03-03 14:00:00 21 22 Sudoeste 37 Sudoeste 0 -- -- 35
2019-03-03 13:00:00 18.7 12 Sudoeste 20 Sur 0 -- -- 41
2019-03-03 12:00:00 15.9 9 Sudoeste 15 Sudoeste 0 -- -- 47
2019-03-03 11:00:00 12 0 Calma 4 Nordeste 0 -- -- 54
2019-03-03 10:00:00 7.9 2 Sur 4 Sur 0 -- -- 65
2019-03-03 09:00:00 4.3 2 Nordeste 4 Este 0 -- -- 76
2019-03-03 08:00:00 0.5 2 Nordeste 6 Este 0 -- -- 83
2019-03-03 07:00:00 1.7 4 Nordeste 6 Nordeste 0 -- -- 83
2019-03-03 06:00:00 2.2 5 Nordeste 8 Nordeste 0 -- -- 83
2019-03-03 05:00:00 2.3 0 Calma 8 Nordeste 0 -- -- 77
2019-03-03 04:00:00 2 2 Nordeste 4 Nordeste 0 -- -- 77
2019-03-03 03:00:00 2.6 0 Calma 7 Este 0 -- -- 75
2019-03-03 02:00:00 4.2 3 Nordeste 6 Nordeste 0 -- -- 67
2019-03-03 01:00:00 6.1 4 Este 6 Este 0 -- -- 67
2019-03-03 00:00:00 8.2 4 Nordeste 9 Este 0 -- -- 61
2019-03-02 23:00:00 9.3 0 Calma 9 Nordeste 0 -- -- 55
2019-03-02 22:00:00 11.3 5 Nordeste 9 Sur 0 -- -- 52
2019-03-02 21:00:00 13.3 4 Sur 12 Oeste 0 -- -- 47
2019-03-02 20:00:00 15.5 4 Sudeste 6 Sur 0 -- -- 41
2019-03-02 19:00:00 20.4 4 Sur 8 Sudoeste 0 -- -- 30
2019-03-02 18:00:00 21.7 6 Oeste 15 Sudoeste 0 -- -- 27
2019-03-02 17:00:00 21.8 7 Oeste 21 Sudoeste 0 -- -- 29
2019-03-02 16:00:00 21.4 10 Sur 21 Sudoeste 0 -- -- 28
2019-03-02 15:00:00 20.4 7 Sudoeste 19 Sur 0 -- -- 32
2019-03-02 14:00:00 19.1 5 Sur 17 Sudoeste 0 -- -- 34
2019-03-02 13:00:00 18.3 6 Sudoeste 17 Sudoeste 0 -- -- 36
2019-03-02 12:00:00 16.7 5 Este 12 Este 0 -- -- 41
2019-03-02 11:00:00 13.6 3 Norte 8 Este 0 -- -- 49
2019-03-02 10:00:00 10.6 3 Este 8 Nordeste 0 -- -- 57
2019-03-02 09:00:00 5.6 3 Nordeste 6 Nordeste 0 -- -- 74
2019-03-02 08:00:00 3.2 2 Nordeste 6 Nordeste 0 -- -- 78
2019-03-02 07:00:00 3.4 5 Sudeste 6 Sudeste 0 -- -- 78
2019-03-02 06:00:00 3.6 2 Oeste 5 Este 0 -- -- 72
2019-03-02 05:00:00 4.5 2 Nordeste 6 Este 0 -- -- 71
2019-03-02 04:00:00 5.8 3 Nordeste 6 Nordeste 0 -- -- 67
2019-03-02 03:00:00 6.4 0 Calma 6 Norte 0 -- -- 67
2019-03-02 02:00:00 7 4 Este 6 Este 0 -- -- 67
2019-03-02 01:00:00 6.7 3 Sudoeste 5 Oeste 0 -- -- 65
2019-03-02 00:00:00 7.6 3 Nordeste 14 Nordeste 0 -- -- 56
2019-03-01 23:00:00 9.1 4 Este 12 Nordeste 0 -- -- 54
2019-03-01 22:00:00 11.1 3 Nordeste 9 Nordeste 0 -- -- 50
2019-03-01 21:00:00 12.9 5 Sudoeste 10 Sudoeste 0 -- -- 45
2019-03-01 20:00:00 14.1 4 Sudoeste 12 Sudoeste 0 -- -- 41
2019-03-01 19:00:00 16.4 11 Sudoeste 19 Sudoeste 0 -- -- 37
2019-03-01 18:00:00 20.1 12 Sudoeste 17 Oeste 0 -- -- 29
2019-03-01 17:00:00 20.7 8 Sudoeste 18 Oeste 0 -- -- 26
2019-03-01 16:00:00 21 9 Sudoeste 21 Oeste 0 -- -- 26
2019-03-01 15:00:00 20.9 7 Sudoeste 15 Sudoeste 0 -- -- 28
2019-03-01 14:00:00 20.1 5 Sur 12 Sudoeste 0 -- -- 29
2019-03-01 13:00:00 18.4 4 Sudoeste 9 Sudoeste 0 -- -- 35
2019-03-01 12:00:00 14.9 3 Sudoeste 7 Sur 0 -- -- 42
2019-03-01 11:00:00 12.1 2 Norte 9 Este 0 -- -- 47
2019-03-01 10:00:00 8.6 0 Calma 5 Este 0 -- -- 59
2019-03-01 09:00:00 5.3 4 Este 8 Nordeste 0 -- -- 70
2019-03-01 08:00:00 2.6 6 Este 8 Nordeste 0 -- -- 77
2019-03-01 07:00:00 3.1 4 Este 7 Nordeste 0 -- -- 75
2019-03-01 06:00:00 3.6 4 Este 7 Este 0 -- -- 74
2019-03-01 05:00:00 3.5 4 Este 6 Este 0 -- -- 75
2019-03-01 04:00:00 3.7 0 Calma 5 Este 0 -- -- 73
2019-03-01 03:00:00 5 0 Calma 8 Nordeste 0 -- -- 65
2019-03-01 02:00:00 6.8 4 Este 8 Este 0 -- -- 62
2019-03-01 01:00:00 7.5 3 Nordeste 12 Nordeste 0 -- -- 58
2019-03-01 00:00:00 7.6 4 Nordeste 8 Nordeste 0 -- -- 57
2019-02-28 23:00:00 8.7 2 Norte 7 Este 0 -- -- 53
2019-02-28 22:00:00 10.1 7 Este 11 Nordeste 0 -- -- 50
2019-02-28 21:00:00 11.1 3 Sudeste 4 Sur 0 -- -- 45
2019-02-28 20:00:00 14.1 0 Calma 4 Sur 0 -- -- 40
2019-02-28 19:00:00 16.9 4 Oeste 7 Oeste 0 -- -- 34
2019-02-28 18:00:00 19.2 6 Oeste 9 Sudoeste 0 -- -- 32
2019-02-28 17:00:00 20 6 Oeste 14 Sudoeste 0 -- -- 27
2019-02-28 16:00:00 20.4 5 Oeste 14 Noroeste 0 -- -- 29
2019-02-28 15:00:00 20.7 4 Noroeste 13 Sudoeste 0 -- -- 28
2019-02-28 14:00:00 19.6 4 Oeste 10 Sur 0 -- -- 32
2019-02-28 13:00:00 17.3 4 Noroeste 12 Oeste 0 -- -- 36
2019-02-28 12:00:00 14.4 3 Sur 7 Sudoeste 0 -- -- 41
2019-02-28 11:00:00 11.2 2 Sudoeste 5 Nordeste 0 -- -- 48
2019-02-28 10:00:00 7.5 0 Calma 5 Nordeste 0 -- -- 58
2019-02-28 09:00:00 2.9 3 Nordeste 8 Nordeste 0 -- -- 71
2019-02-28 08:00:00 1 3 Nordeste 6 Nordeste 0 -- -- 75
2019-02-28 07:00:00 1.1 4 Nordeste 8 Nordeste 0 -- -- 75
2019-02-28 06:00:00 1.6 3 Este 8 Nordeste 0 -- -- 72
2019-02-28 05:00:00 2 5 Nordeste 9 Nordeste 0 -- -- 71
2019-02-28 04:00:00 1.6 2 Nordeste 5 Nordeste 0 -- -- 66
2019-02-28 03:00:00 3 4 Este 7 Nordeste 0 -- -- 64
2019-02-28 02:00:00 2.9 0 Calma 6 Nordeste 0 -- -- 62
2019-02-28 01:00:00 4.6 4 Nordeste 7 Nordeste 0 -- -- 58
2019-02-28 00:00:00 5.1 0 Calma 5 Nordeste 0 -- -- 51
2019-02-27 23:00:00 6.3 0 Calma 3 Sudeste 0 -- -- 50
2019-02-27 22:00:00 8 2 Nordeste 5 Norte 0 -- -- 43
2019-02-27 21:00:00 10.3 2 Nordeste 4 Este 0 -- -- 39
2019-02-27 20:00:00 13 0 Calma 5 Oeste 0 -- -- 33
2019-02-27 19:00:00 17.9 3 Oeste 13 Oeste 0 -- -- 26
2019-02-27 18:00:00 21.3 11 Oeste 18 Oeste 0 -- -- 21
2019-02-27 17:00:00 22.2 8 Oeste 20 Oeste 0 -- -- 21
2019-02-27 16:00:00 22.1 6 Sudoeste 21 Oeste 0 -- -- 20
2019-02-27 15:00:00 21.5 6 Sudoeste 18 Oeste 0 -- -- 24
2019-02-27 14:00:00 20.1 9 Oeste 17 Sudoeste 0 -- -- 23
2019-02-27 13:00:00 18.6 5 Sudoeste 9 Sur 0 -- -- 30
2019-02-27 12:00:00 15.2 3 Nordeste 10 Nordeste 0 -- -- 36
2019-02-27 11:00:00 11.9 3 Este 10 Este 0 -- -- 44
2019-02-27 10:00:00 7.7 3 Este 13 Nordeste 0 -- -- 55
2019-02-27 09:00:00 3.9 7 Nordeste 11 Este 0 -- -- 65
2019-02-27 08:00:00 0.2 0 Calma 5 Nordeste 0 -- -- 75
2019-02-27 07:00:00 2.1 5 Nordeste 13 Este 0 -- -- 72
2019-02-27 06:00:00 2.2 4 Nordeste 8 Este 0 -- -- 72
2019-02-27 05:00:00 3 5 Este 10 Este 0 -- -- 69
2019-02-27 04:00:00 3.8 6 Este 10 Este 0 -- -- 68
2019-02-27 03:00:00 4.8 6 Nordeste 11 Nordeste 0 -- -- 65
2019-02-27 02:00:00 5.1 5 Este 10 Este 0 -- -- 60
2019-02-27 01:00:00 7.2 3 Nordeste 12 Este 0 -- -- 51
2019-02-27 00:00:00 7.9 8 Este 13 Este 0 -- -- 46
2019-02-26 23:00:00 8.8 4 Nordeste 11 Nordeste 0 -- -- 42
2019-02-26 22:00:00 9.7 4 Nordeste 9 Nordeste 0 -- -- 40
2019-02-26 21:00:00 10.8 3 Nordeste 4 Nordeste 0 -- -- 36
2019-02-26 20:00:00 14.6 3 Este 10 Sudeste 0 -- -- 29
2019-02-26 19:00:00 18.3 8 Sur 20 Sudeste 0 -- -- 24
2019-02-26 18:00:00 21.4 10 Sur 26 Sudeste 0 -- -- 21
2019-02-26 17:00:00 22.2 13 Sudeste 25 Sur 0 -- -- 21
2019-02-26 16:00:00 22.5 14 Sur 29 Sudeste 0 -- -- 22
2019-02-26 15:00:00 22.1 5 Sur 20 Sudeste 0 -- -- 26
2019-02-26 14:00:00 20.9 13 Sur 26 Sur 0 -- -- 26
2019-02-26 13:00:00 18.5 7 Este 11 Nordeste 0 -- -- 35
2019-02-26 12:00:00 15.5 5 Nordeste 9 Norte 0 -- -- 43
2019-02-26 11:00:00 12.1 3 Este 8 Este 0 -- -- 51
2019-02-26 10:00:00 8.1 0 Calma 4 Noroeste 0 -- -- 64
2019-02-26 09:00:00 3.4 0 Calma 5 Este 0 -- -- 85
2019-02-26 08:00:00 2.3 3 Nordeste 8 Nordeste 0 -- -- 82
2019-02-26 07:00:00 2.6 4 Nordeste 9 Este 0 -- -- 81
2019-02-26 06:00:00 3.1 5 Nordeste 11 Este 0 -- -- 80
2019-02-26 05:00:00 3.3 3 Este 11 Nordeste 0 -- -- 76
2019-02-26 04:00:00 2.5 3 Este 5 Este 0 -- -- 76
2019-02-26 03:00:00 3.3 2 Este 5 Nordeste 0 -- -- 74
2019-02-26 02:00:00 4.8 4 Nordeste 9 Nordeste 0 -- -- 70
2019-02-26 01:00:00 5.4 4 Nordeste 8 Nordeste 0 -- -- 68
2019-02-26 00:00:00 5.2 2 Nordeste 12 Sur 0 -- -- 69
2019-02-25 23:00:00 8.1 3 Nordeste 9 Nordeste 0 -- -- 57
2019-02-25 22:00:00 8.7 4 Nordeste 6 Nordeste 0 -- -- 57
2019-02-25 21:00:00 10.8 2 Nordeste 6 Nordeste 0 -- -- 48
2019-02-25 20:00:00 13.9 2 Nordeste 4 Este 0 -- -- 42
2019-02-25 19:00:00 19.3 0 Calma 3 Norte 0 -- -- 32
2019-02-25 18:00:00 21.6 2 Noroeste 9 Oeste 0 -- -- 30
2019-02-25 17:00:00 21.3 3 Oeste 13 Sudoeste 0 -- -- 31
2019-02-25 16:00:00 20.9 5 Sur 13 Sudoeste 0 -- -- 32
2019-02-25 15:00:00 20 4 Oeste 12 Oeste 0 -- -- 33
2019-02-25 14:00:00 18.4 6 Oeste 13 Sudoeste 0 -- -- 35
2019-02-25 13:00:00 16.8 5 Sudoeste 10 Sudoeste 0 -- -- 40
2019-02-25 12:00:00 14.2 3 Sudoeste 5 Este 0 -- -- 46
2019-02-25 11:00:00 11 3 Sudeste 8 Este 0 -- -- 55
2019-02-25 10:00:00 7.7 5 Este 9 Este 0 -- -- 64
2019-02-25 09:00:00 3.8 5 Nordeste 11 Nordeste 0 -- -- 76
2019-02-25 08:00:00 2 5 Nordeste 8 Nordeste 0 -- -- 81
2019-02-25 07:00:00 2.2 4 Este 9 Este 0 -- -- 79
2019-02-25 06:00:00 3 4 Este 10 Este 0 -- -- 77
2019-02-25 05:00:00 3.5 5 Este 10 Nordeste 0 -- -- 74
2019-02-25 04:00:00 4.6 8 Nordeste 13 Este 0 -- -- 72
2019-02-25 03:00:00 4.5 4 Este 9 Nordeste 0 -- -- 71
2019-02-25 02:00:00 4.2 2 Este 5 Este 0 -- -- 70
2019-02-25 01:00:00 5.2 0 Calma 4 Sudeste 0 -- -- 68
2019-02-25 00:00:00 8.1 0 Calma 11 Sur 0 -- -- 58
2019-02-24 23:00:00 9.4 3 Nordeste 8 Nordeste 0 -- -- 53
2019-02-24 22:00:00 9.8 3 Norte 6 Nordeste 0 -- -- 50
2019-02-24 21:00:00 10.8 0 Calma 4 Oeste 0 -- -- 45
2019-02-24 20:00:00 13.1 0 Calma 7 Este 0 -- -- 39
2019-02-24 19:00:00 17.5 6 Sudeste 14 Este 0 -- -- 32
2019-02-24 18:00:00 21.5 3 Sur 15 Sudeste 0 -- -- 27
2019-02-24 17:00:00 21.6 4 Este 19 Este 0 -- -- 27
2019-02-24 16:00:00 21.2 4 Oeste 13 Noroeste 0 -- -- 28
2019-02-24 15:00:00 20.4 4 Oeste 14 Sudoeste 0 -- -- 29
2019-02-24 14:00:00 19 6 Oeste 14 Oeste 0 -- -- 30
2019-02-24 13:00:00 17.8 3 Norte 8 Este 0 -- -- 34
2019-02-24 12:00:00 15.9 4 Sudeste 10 Sudeste 0 -- -- 39
2019-02-24 11:00:00 12.3 5 Noroeste 9 Este 0 -- -- 47
2019-02-24 10:00:00 7.5 5 Este 10 Este 0 -- -- 62
2019-02-24 09:00:00 4.3 2 Nordeste 9 Nordeste 0 -- -- 70
2019-02-24 08:00:00 0.7 2 Este 5 Nordeste 0 -- -- 77
2019-02-24 07:00:00 0.8 0 Calma 7 Nordeste 0 -- -- 77
2019-02-24 06:00:00 2.3 4 Este 9 Nordeste 0 -- -- 75
2019-02-24 05:00:00 1.4 3 Nordeste 5 Nordeste 0 -- -- 75
2019-02-24 04:00:00 1.7 2 Nordeste 6 Sudeste 0 -- -- 72
2019-02-24 03:00:00 1.7 3 Oeste 5 Oeste 0 -- -- 69
2019-02-24 02:00:00 3 0 Calma 6 Este 0 -- -- 65
2019-02-24 01:00:00 5.4 3 Nordeste 12 Nordeste 0 -- -- 59
2019-02-24 00:00:00 4.7 5 Nordeste 8 Nordeste 0 -- -- 65